• Join FlightAware (Why Join?)
  • Login
  • US Flag 
 
07:45PM EST


 

Airport Tracker/Info


-or-


 

Live Flight TrackerFlight Track Log ✈ N1095X ✈ 13-Jun-2013 ✈ KLAN - KAZO

Flight Track Log - Related Links

Times and Time Zones

All times are in EDT time to prevent confusion due to time zone crossing. See the N1095X flight status page for this flight to view local times or setup timezone preferences in your user account.

Time Position Orientation Groundspeed Altitude Reporting Facility
EDT Latitude Longitude Course Direction KTS MPH feet Rate Location/Type
10:02AM 42.7089 -84.7128 229° Southwest 117 135 3,300  Level Chicago Center
10:03AM 42.6881 -84.7483 231° Southwest 118 136 3,900 480 Climbing Chicago Center
10:04AM 42.6686 -84.7847 234° Southwest 118 136 4,400 240 Climbing Chicago Center
10:05AM 42.6186 -84.8732 233° Southwest  Level Estimated
10:05AM 42.6444 -84.8325 235° Southwest 127 146 4,500  Level Chicago Center
10:06AM 42.5957 -84.9141 233° Southwest  Level Estimated
10:06AM 42.6217 -84.8747 234° Southwest 137 158 4,500  Level Chicago Center
10:07AM 42.5989 -84.9192 235° Southwest 141 162 4,500  Level Chicago Center
10:08AM 42.5756 -84.9625 234° Southwest 142 163 4,500  Level Chicago Center
10:09AM 42.5497 -85.0019 228° Southwest 141 162 4,500  Level Chicago Center
10:10AM 42.5253 -85.0458 233° Southwest 145 167 4,500  Level Chicago Center
10:11AM 42.4953 -85.0964 231° Southwest 145 167 4,500 -60 Level Chicago Center
10:12AM 42.4708 -85.1389 232° Southwest 144 166 4,400 -60 Descending Chicago Center
10:13AM 42.4353 -85.1681 211° Southwest 147 169 4,400  Level Chicago Center
10:14AM 42.4006 -85.1981 213° Southwest 148 170 4,400  Level Chicago Center
10:15AM 42.3669 -85.2286 214° Southwest 146 168 4,500  Climbing Chicago Center
10:16AM 42.3331 -85.2589 213° Southwest 146 168 4,500  Level Chicago Center
10:17AM 42.2914 -85.2958 213° Southwest 148 170 4,500  Level Chicago Center
10:18AM 42.2592 -85.3242 213° Southwest 149 171 4,500  Level Chicago Center
10:19AM 42.2250 -85.3542 213° Southwest 148 170 4,500 -360 Level Chicago Center
10:20AM 42.2083 -85.4028 245° Southwest 146 168 3,800 -960 Descending Chicago Center
10:21AM 42.2025 -85.4642 263° West 140 161 2,600 -960 Descending Chicago Center
10:22AM 42.2011 -85.5108 268° West 134 154 1,900 -660 Descending Chicago Center
10:24AM 42.2067 -85.5428 283° West 117 135 1,300 -480 Descending Chicago Center
10:25AM 42.2253 -85.5567 331° Northwest 104 120 1,000 -300 Descending Chicago Center